createdAt,value
2019-02-23T00:00:50.886Z,80.21
2019-02-23T00:03:19.154Z,80.11
2019-02-23T00:05:52.781Z,80.45
2019-02-23T00:08:22.533Z,80.60
2019-02-23T00:10:50.828Z,81.12
2019-02-23T00:13:18.922Z,81.59
2019-02-23T00:15:47.010Z,81.42
2019-02-23T00:18:16.125Z,81.08
2019-02-23T00:20:44.357Z,81.40
2019-02-23T00:23:12.362Z,81.75
2019-02-23T00:25:40.575Z,81.64
2019-02-23T00:28:08.749Z,81.65
2019-02-23T00:30:36.717Z,81.05
2019-02-23T00:33:05.025Z,81.38
2019-02-23T00:35:32.986Z,81.40
2019-02-23T00:38:01.269Z,81.93
2019-02-23T00:40:29.641Z,81.79
2019-02-23T00:42:57.642Z,81.39
2019-02-23T00:45:25.887Z,80.84
2019-02-23T00:47:54.378Z,81.51
2019-02-23T00:50:22.507Z,81.89
2019-02-23T00:52:50.740Z,81.64
2019-02-23T00:55:19.047Z,82.42
2019-02-23T00:57:47.494Z,82.63
2019-02-23T01:00:15.955Z,82.96
2019-02-23T01:02:46.545Z,82.51
2019-02-23T01:05:14.884Z,82.81
2019-02-23T01:07:44.380Z,83.11
2019-02-23T01:10:35.723Z,82.84
2019-02-23T01:13:05.776Z,83.05
2019-02-23T01:15:40.466Z,83.65
2019-02-23T01:18:08.943Z,83.77
2019-02-23T01:20:38.130Z,83.86
2019-02-23T01:23:06.805Z,83.63
2019-02-23T01:25:34.794Z,83.40
2019-02-23T01:28:03.293Z,83.56
2019-02-23T01:30:31.527Z,82.82
2019-02-23T01:32:59.505Z,82.54
2019-02-23T01:35:27.545Z,82.54
2019-02-23T01:37:55.684Z,82.79
2019-02-23T01:40:23.780Z,82.87
2019-02-23T01:42:52.091Z,82.59
2019-02-23T01:45:20.370Z,83.01
2019-02-23T01:47:48.340Z,82.61
2019-02-23T01:50:16.357Z,82.43
2019-02-23T01:52:44.687Z,82.82
2019-02-23T01:55:12.653Z,82.83
2019-02-23T01:57:40.623Z,83.21
2019-02-23T02:00:10.776Z,82.83
2019-02-23T02:02:39.190Z,82.85
2019-02-23T02:05:07.594Z,82.77
2019-02-23T02:07:35.671Z,83.17
2019-02-23T02:10:05.417Z,83.59
2019-02-23T02:12:34.281Z,82.85
2019-02-23T02:15:02.316Z,82.62
2019-02-23T02:17:32.477Z,82.95
2019-02-23T02:20:10.575Z,83.11
2019-02-23T02:22:31.993Z,83.95
2019-02-23T02:25:00.100Z,83.12
2019-02-23T02:27:28.507Z,83.43
2019-02-23T02:29:57.071Z,83.31
2019-02-23T02:32:25.843Z,82.67
2019-02-23T02:34:53.807Z,82.63
2019-02-23T02:37:22.106Z,83.06
2019-02-23T02:39:50.111Z,83.31
2019-02-23T02:42:18.189Z,83.69
2019-02-23T02:44:47.982Z,83.58
2019-02-23T02:47:16.309Z,83.41
2019-02-23T02:49:44.409Z,83.83
2019-02-23T02:52:12.890Z,83.68
2019-02-23T02:54:40.995Z,83.39
2019-02-23T02:57:09.331Z,84.15
2019-02-23T02:59:37.477Z,84.47
2019-02-23T03:02:05.921Z,84.42
2019-02-23T03:04:33.963Z,84.39
2019-02-23T03:07:02.246Z,84.11
2019-02-23T03:09:30.386Z,83.73
2019-02-23T03:11:58.400Z,83.29
2019-02-23T03:14:26.354Z,83.95
2019-02-23T03:16:56.093Z,83.59
2019-02-23T03:19:24.333Z,83.35
2019-02-23T03:21:52.404Z,83.41
2019-02-23T03:24:20.390Z,83.83
2019-02-23T03:26:48.499Z,83.54
2019-02-23T03:29:16.909Z,83.78
2019-02-23T03:31:44.841Z,83.98
2019-02-23T03:34:12.839Z,83.50
2019-02-23T03:36:40.758Z,83.77
2019-02-23T03:39:08.944Z,84.30
2019-02-23T03:41:37.117Z,83.69
2019-02-23T03:44:05.780Z,83.10
2019-02-23T03:46:34.218Z,83.20
2019-02-23T03:49:02.308Z,82.96
2019-02-23T03:51:30.301Z,82.71
2019-02-23T03:53:58.395Z,83.24
2019-02-23T03:56:27.575Z,83.24
2019-02-23T03:58:56.008Z,82.93
2019-02-23T04:01:23.926Z,82.67
2019-02-23T04:03:52.558Z,82.85
2019-02-23T04:06:20.555Z,83.65
2019-02-23T04:08:48.545Z,83.47
2019-02-23T04:11:16.525Z,84.13
2019-02-23T04:13:44.540Z,84.08
2019-02-23T04:16:12.578Z,83.35
2019-02-23T04:18:40.581Z,83.51
2019-02-23T04:21:08.798Z,83.70
2019-02-23T04:23:37.156Z,83.85
2019-02-23T04:26:05.549Z,84.30
2019-02-23T04:28:33.543Z,84.90
2019-02-23T04:31:01.482Z,85.03
2019-02-23T04:33:29.511Z,84.94
2019-02-23T04:35:57.482Z,84.53
2019-02-23T04:38:25.661Z,84.23
2019-02-23T04:40:53.997Z,84.27
2019-02-23T04:43:21.988Z,84.09
2019-02-23T04:45:50.613Z,84.49
2019-02-23T04:48:19.920Z,84.14
2019-02-23T04:50:48.050Z,84.37
2019-02-23T04:53:16.031Z,83.84
2019-02-23T04:55:45.255Z,83.97
2019-02-23T04:58:13.855Z,83.95
2019-02-23T05:00:44.956Z,84.01
2019-02-23T05:03:12.150Z,84.09
2019-02-23T05:05:40.118Z,83.49
2019-02-23T05:08:08.099Z,83.39
2019-02-23T05:10:36.115Z,83.42
2019-02-23T05:13:04.304Z,83.37
2019-02-23T05:15:32.344Z,83.79
2019-02-23T05:18:00.350Z,83.80
2019-02-23T05:20:28.360Z,83.95
2019-02-23T05:22:56.814Z,84.58
2019-02-23T05:25:24.864Z,84.14
2019-02-23T05:27:53.170Z,83.50
2019-02-23T05:30:21.203Z,83.86
2019-02-23T05:32:49.242Z,82.86
2019-02-23T05:35:17.417Z,82.97
2019-02-23T05:37:45.580Z,83.24
2019-02-23T05:40:14.233Z,82.60
2019-02-23T05:42:42.222Z,82.47
2019-02-23T05:45:10.577Z,82.41
2019-02-23T05:47:38.524Z,81.98
2019-02-23T05:50:08.276Z,81.77
2019-02-23T05:52:36.767Z,81.84
2019-02-23T05:55:04.764Z,82.31
2019-02-23T05:57:32.830Z,82.16
2019-02-23T06:00:01.101Z,81.77
2019-02-23T06:02:29.144Z,81.41
2019-02-23T06:04:57.082Z,81.67
2019-02-23T06:07:25.041Z,81.27
2019-02-23T06:09:53.268Z,80.77
2019-02-23T06:12:22.348Z,80.19
2019-02-23T06:14:50.326Z,79.83
2019-02-23T06:17:18.539Z,79.53
2019-02-23T06:19:46.842Z,80.05
2019-02-23T06:22:14.800Z,80.18
2019-02-23T06:24:43.041Z,79.55
2019-02-23T06:27:11.398Z,79.10
2019-02-23T06:29:39.912Z,79.01
2019-02-23T06:32:07.906Z,77.85
2019-02-23T06:34:36.173Z,77.67
2019-02-23T06:37:04.104Z,77.65
2019-02-23T06:39:32.129Z,77.80
2019-02-23T06:42:00.160Z,78.11
2019-02-23T06:44:29.513Z,77.71
2019-02-23T06:46:57.556Z,77.25
2019-02-23T06:49:25.524Z,77.31
2019-02-23T06:52:03.979Z,76.43
2019-02-23T06:54:23.718Z,76.09
2019-02-23T06:56:51.703Z,75.74
2019-02-23T06:59:20.277Z,74.53
2019-02-23T07:01:48.252Z,74.90
2019-02-23T07:04:16.494Z,74.74
2019-02-23T07:06:44.729Z,74.49
2019-02-23T07:09:13.004Z,73.83
2019-02-23T07:11:40.973Z,73.36
2019-02-23T07:14:08.946Z,73.13
2019-02-23T07:16:37.228Z,73.42
2019-02-23T07:19:05.925Z,73.12
2019-02-23T07:21:33.937Z,72.38
2019-02-23T07:24:02.213Z,71.71
2019-02-23T07:26:30.211Z,72.57
2019-02-23T07:28:58.483Z,71.44
2019-02-23T07:31:26.462Z,73.58
2019-02-23T07:33:54.501Z,72.70
2019-02-23T07:36:22.812Z,75.11
2019-02-23T07:38:50.758Z,71.90
2019-02-23T07:41:18.728Z,71.87
2019-02-23T07:43:46.834Z,71.78
2019-02-23T07:46:14.862Z,70.74
2019-02-23T07:48:42.862Z,69.32
2019-02-23T07:51:10.883Z,69.55
2019-02-23T07:53:39.019Z,68.68
2019-02-23T07:56:07.101Z,68.09
2019-02-23T07:58:35.207Z,68.14
2019-02-23T08:01:03.188Z,68.20
2019-02-23T08:03:31.127Z,67.88
2019-02-23T08:05:59.082Z,68.49
2019-02-23T08:08:27.110Z,67.63
2019-02-23T08:10:55.070Z,69.02
2019-02-23T08:13:23.053Z,66.69
2019-02-23T08:15:51.319Z,68.84
2019-02-23T08:18:19.302Z,65.36
2019-02-23T08:20:47.302Z,66.78
2019-02-23T08:23:15.283Z,65.96
2019-02-23T08:25:43.245Z,66.63
2019-02-23T08:28:11.178Z,64.28
2019-02-23T08:30:39.150Z,65.99
2019-02-23T08:33:07.109Z,65.51
2019-02-23T08:35:35.179Z,62.96
2019-02-23T08:38:04.805Z,62.52
2019-02-23T08:40:33.968Z,62.25
2019-02-23T08:43:01.960Z,61.71
2019-02-23T08:45:29.904Z,61.74
2019-02-23T08:47:57.901Z,61.05
2019-02-23T08:50:25.912Z,59.91
2019-02-23T08:52:54.198Z,59.35
2019-02-23T08:55:22.493Z,58.44
2019-02-23T08:57:50.503Z,57.92
2019-02-23T09:00:18.562Z,58.29
2019-02-23T09:02:46.582Z,57.96
2019-02-23T09:05:15.232Z,56.40
2019-02-23T09:07:43.253Z,55.96
2019-02-23T09:10:11.666Z,55.17
2019-02-23T09:12:41.602Z,54.42
2019-02-23T09:15:10.870Z,54.24
2019-02-23T09:17:39.057Z,54.89
2019-02-23T09:20:07.486Z,53.00
2019-02-23T09:22:37.481Z,51.93
2019-02-23T09:25:06.334Z,50.57
2019-02-23T09:27:34.468Z,52.70
2019-02-23T09:30:02.493Z,54.50
2019-02-23T09:32:30.731Z,55.38
2019-02-23T09:34:58.728Z,54.08
2019-02-23T09:37:26.838Z,53.73
2019-02-23T09:39:55.220Z,52.94
2019-02-23T09:42:23.257Z,53.95
2019-02-23T09:44:52.387Z,52.00
2019-02-23T09:47:20.346Z,51.48
2019-02-23T09:49:49.578Z,51.46
2019-02-23T09:52:17.792Z,50.86
2019-02-23T09:54:45.927Z,51.55
2019-02-23T09:57:15.578Z,51.12
2019-02-23T09:59:43.852Z,50.26
2019-02-23T10:02:12.063Z,49.83
2019-02-23T10:04:40.153Z,48.95
2019-02-23T10:07:08.139Z,47.94
2019-02-23T10:09:36.091Z,48.50
2019-02-23T10:12:04.292Z,48.25
2019-02-23T10:14:36.232Z,46.76
2019-02-23T10:17:05.772Z,46.50
2019-02-23T10:19:33.801Z,46.40
2019-02-23T10:22:01.819Z,46.06
2019-02-23T10:24:32.324Z,45.95
2019-02-23T10:27:00.286Z,45.19
2019-02-23T10:29:29.682Z,44.69
2019-02-23T10:31:57.941Z,43.77
2019-02-23T10:34:26.145Z,42.89
2019-02-23T10:36:54.349Z,42.62
2019-02-23T10:39:22.430Z,42.75
2019-02-23T10:41:50.431Z,41.83
2019-02-23T10:44:18.479Z,41.62
2019-02-23T10:46:46.545Z,41.26
2019-02-23T10:49:14.826Z,42.81
2019-02-23T10:52:05.398Z,41.06
2019-02-23T10:54:40.012Z,40.23
2019-02-23T10:57:08.077Z,40.07
2019-02-23T10:59:36.130Z,39.29
2019-02-23T11:02:05.468Z,37.40
2019-02-23T11:04:33.525Z,36.45
2019-02-23T11:07:01.575Z,36.36
2019-02-23T11:09:35.311Z,36.03
2019-02-23T11:12:03.543Z,35.74
2019-02-23T11:14:31.553Z,35.01
2019-02-23T11:16:59.490Z,34.06
2019-02-23T11:19:27.631Z,33.47
2019-02-23T11:21:55.640Z,33.19
2019-02-23T11:24:23.741Z,32.29
2019-02-23T11:26:52.130Z,32.21
2019-02-23T11:29:20.502Z,32.61
2019-02-23T11:31:51.573Z,31.88
2019-02-23T11:34:19.912Z,31.95
2019-02-23T11:36:47.885Z,31.15
2019-02-23T11:39:15.835Z,30.58
2019-02-23T11:41:43.818Z,30.71
2019-02-23T11:44:11.935Z,29.90
2019-02-23T11:46:39.910Z,29.54
2019-02-23T11:49:23.713Z,29.39
2019-02-23T11:51:51.985Z,28.87
2019-02-23T11:54:19.993Z,28.52
2019-02-23T11:56:48.017Z,27.76
2019-02-23T11:59:16.008Z,27.80
2019-02-23T12:01:49.015Z,27.09
2019-02-23T12:04:18.268Z,27.20
2019-02-23T12:06:46.256Z,27.15
2019-02-23T12:09:14.600Z,25.82
2019-02-23T12:11:42.911Z,25.94
2019-02-23T12:14:10.880Z,26.02
2019-02-23T12:16:38.836Z,25.64
2019-02-23T12:19:06.853Z,25.41
2019-02-23T12:21:34.864Z,25.23
2019-02-23T12:24:06.081Z,24.43
2019-02-23T12:26:32.728Z,23.89
2019-02-23T12:29:01.067Z,22.98
2019-02-23T12:31:29.108Z,23.80
2019-02-23T12:33:57.120Z,22.83
2019-02-23T12:36:25.456Z,22.79
2019-02-23T12:38:53.795Z,22.37
2019-02-23T12:41:21.765Z,22.51
2019-02-23T12:43:49.736Z,22.13
2019-02-23T12:46:17.758Z,22.01
2019-02-23T12:48:45.856Z,21.14
2019-02-23T12:51:14.131Z,21.16
2019-02-23T12:53:42.493Z,21.53
2019-02-23T12:56:10.596Z,21.26
2019-02-23T12:58:41.647Z,20.93
2019-02-23T13:01:09.684Z,19.91
2019-02-23T13:03:37.705Z,19.56
2019-02-23T13:06:05.924Z,19.35
2019-02-23T13:09:14.526Z,19.37
2019-02-23T13:11:47.558Z,19.36
2019-02-23T13:15:03.027Z,18.91
2019-02-23T13:18:22.676Z,19.17
2019-02-23T13:21:55.094Z,17.99
2019-02-23T13:25:21.776Z,18.65
2019-02-23T13:28:33.750Z,18.29
2019-02-23T13:32:00.794Z,17.33
2019-02-23T13:35:21.543Z,16.12
2019-02-23T13:38:13.647Z,15.06
2019-02-23T13:41:36.156Z,13.78
2019-02-23T13:44:53.035Z,13.22
2019-02-23T13:48:24.698Z,13.45
2019-02-23T13:51:43.135Z,11.66
2019-02-23T13:55:02.137Z,11.49
2019-02-23T13:58:39.093Z,11.81
2019-02-23T14:01:40.771Z,12.57
2019-02-23T14:05:03.699Z,12.31
2019-02-23T14:08:43.112Z,12.63
2019-02-23T14:12:02.308Z,13.61
2019-02-23T14:15:55.584Z,13.37
2019-02-23T14:18:41.715Z,13.12
2019-02-23T14:21:54.884Z,11.99
2019-02-23T14:25:35.708Z,11.73
2019-02-23T14:29:11.176Z,12.27
2019-02-23T14:32:32.241Z,12.75
2019-02-23T14:35:57.358Z,12.63
2019-02-23T14:39:31.669Z,12.54
2019-02-23T14:42:29.422Z,13.12
2019-02-23T14:45:34.576Z,13.94
2019-02-23T14:49:07.344Z,13.81
2019-02-23T14:52:47.516Z,14.32
2019-02-23T14:56:21.742Z,13.86
2019-02-23T14:59:49.693Z,14.41
2019-02-23T15:03:20.659Z,14.04
2019-02-23T15:06:46.842Z,13.69
2019-02-23T15:10:20.761Z,14.26
2019-02-23T15:13:55.783Z,14.91
2019-02-23T15:17:14.876Z,15.53
2019-02-23T15:21:04.670Z,16.59
2019-02-23T15:24:52.487Z,16.79
2019-02-23T15:28:12.259Z,16.86
2019-02-23T15:31:20.753Z,17.57
2019-02-23T15:34:46.946Z,17.71
2019-02-23T15:38:23.040Z,17.79
2019-02-23T15:41:52.946Z,17.66
2019-02-23T15:45:02.210Z,18.33
2019-02-23T15:48:26.036Z,18.68
2019-02-23T15:50:54.281Z,18.44
2019-02-23T15:53:22.488Z,19.13
2019-02-23T15:55:50.603Z,19.70
2019-02-23T15:58:22.797Z,19.57
2019-02-23T16:00:51.936Z,19.01
2019-02-23T16:03:20.581Z,18.87
2019-02-23T16:05:48.931Z,19.09
2019-02-23T16:08:16.968Z,19.40
2019-02-23T16:10:45.246Z,19.46
2019-02-23T16:13:13.191Z,19.61
2019-02-23T16:15:41.337Z,19.86
2019-02-23T16:18:09.778Z,19.83
2019-02-23T16:20:38.162Z,20.59
2019-02-23T16:23:06.371Z,20.42
2019-02-23T16:25:46.589Z,20.51
2019-02-23T16:28:15.980Z,21.13
2019-02-23T16:30:46.526Z,21.75
2019-02-23T16:33:14.651Z,22.56
2019-02-23T16:35:44.035Z,23.89
2019-02-23T16:38:13.733Z,24.74
2019-02-23T16:40:50.418Z,25.54
2019-02-23T16:43:19.010Z,27.05
2019-02-23T16:45:46.991Z,28.41
2019-02-23T16:48:15.163Z,26.34
2019-02-23T16:50:43.198Z,26.29
2019-02-23T16:53:11.270Z,28.97
2019-02-23T16:55:50.612Z,26.56
2019-02-23T16:58:09.617Z,26.71
2019-02-23T17:00:37.631Z,27.08
2019-02-23T17:03:05.750Z,27.26
2019-02-23T17:05:33.900Z,27.06
2019-02-23T17:08:01.961Z,27.13
2019-02-23T17:10:30.265Z,27.14
2019-02-23T17:12:58.240Z,26.88
2019-02-23T17:15:26.541Z,27.28
2019-02-23T17:17:54.865Z,27.57
2019-02-23T17:20:26.273Z,28.48
2019-02-23T17:22:54.276Z,27.67
2019-02-23T17:25:22.313Z,27.83
2019-02-23T17:27:50.355Z,28.09
2019-02-23T17:30:18.831Z,28.56
2019-02-23T17:32:46.982Z,28.30
2019-02-23T17:35:15.124Z,28.36
2019-02-23T17:37:43.247Z,28.52
2019-02-23T17:40:11.636Z,28.43
2019-02-23T17:42:39.925Z,28.74
2019-02-23T17:45:08.945Z,29.03
2019-02-23T17:47:37.152Z,29.09
2019-02-23T17:50:05.214Z,29.42
2019-02-23T17:52:33.664Z,28.89
2019-02-23T17:55:03.555Z,28.75
2019-02-23T17:57:31.884Z,29.05
2019-02-23T17:59:59.929Z,28.43
2019-02-23T18:02:28.065Z,28.46
2019-02-23T18:04:56.203Z,28.23
2019-02-23T18:07:24.259Z,28.18
2019-02-23T18:09:52.294Z,28.31
2019-02-23T18:12:20.393Z,27.66
2019-02-23T18:14:48.548Z,27.72
2019-02-23T18:17:16.638Z,27.74
2019-02-23T18:19:44.737Z,27.59
2019-02-23T18:22:14.207Z,27.73
2019-02-23T18:24:42.372Z,27.63
2019-02-23T18:27:10.511Z,27.65
2019-02-23T18:29:38.973Z,27.67
2019-02-23T18:32:07.355Z,28.02
2019-02-23T18:34:35.506Z,28.05
2019-02-23T18:37:05.415Z,27.88
2019-02-23T18:39:33.606Z,27.68
2019-02-23T18:42:04.571Z,28.16
2019-02-23T18:44:32.747Z,27.74
2019-02-23T18:47:00.966Z,27.77
2019-02-23T18:49:29.202Z,27.78
2019-02-23T18:51:57.752Z,27.76
2019-02-23T18:54:25.826Z,27.68
2019-02-23T18:56:54.962Z,27.58
2019-02-23T18:59:23.020Z,28.12
2019-02-23T19:01:51.135Z,28.06
2019-02-23T19:04:19.301Z,27.92
2019-02-23T19:06:47.721Z,28.25
2019-02-23T19:09:17.738Z,28.04
2019-02-23T19:11:45.778Z,28.54
2019-02-23T19:14:15.416Z,28.60
2019-02-23T19:16:45.337Z,28.81
2019-02-23T19:19:13.406Z,29.14
2019-02-23T19:21:41.646Z,29.04
2019-02-23T19:24:10.300Z,29.08
2019-02-23T19:26:38.550Z,29.59
2019-02-23T19:29:06.763Z,29.34
2019-02-23T19:31:37.096Z,29.60
2019-02-23T19:34:05.257Z,29.46
2019-02-23T19:36:33.464Z,29.43
2019-02-23T19:39:01.665Z,29.77
2019-02-23T19:41:31.732Z,29.90
2019-02-23T19:43:59.872Z,29.85
2019-02-23T19:46:27.966Z,30.31
2019-02-23T19:48:55.977Z,30.23
2019-02-23T19:51:24.557Z,30.53
2019-02-23T19:53:52.872Z,30.28
2019-02-23T19:56:21.213Z,30.84
2019-02-23T19:58:49.405Z,30.76
2019-02-23T20:01:17.518Z,30.57
2019-02-23T20:03:47.468Z,30.49
2019-02-23T20:06:15.780Z,30.41
2019-02-23T20:08:44.309Z,30.81
2019-02-23T20:11:12.550Z,30.91
2019-02-23T20:13:41.574Z,30.99
2019-02-23T20:16:11.955Z,30.80
2019-02-23T20:18:40.035Z,30.74
2019-02-23T20:21:08.185Z,31.32
2019-02-23T20:23:36.336Z,31.02
2019-02-23T20:26:04.480Z,30.77
2019-02-23T20:28:33.341Z,31.22
2019-02-23T20:31:01.637Z,31.02
2019-02-23T20:33:29.763Z,30.86
2019-02-23T20:35:58.901Z,30.87
2019-02-23T20:38:27.147Z,30.74
2019-02-23T20:40:55.460Z,30.00
2019-02-23T20:43:23.562Z,29.58
2019-02-23T20:45:51.874Z,31.08
2019-02-23T20:48:21.094Z,29.33
2019-02-23T20:50:49.574Z,29.19
2019-02-23T20:53:19.702Z,29.08
2019-02-23T20:55:47.927Z,28.98
2019-02-23T20:58:17.886Z,29.38
2019-02-23T21:00:46.172Z,29.21
2019-02-23T21:03:15.310Z,28.79
2019-02-23T21:05:43.504Z,28.94
2019-02-23T21:08:11.597Z,28.86
2019-02-23T21:10:39.976Z,28.84
2019-02-23T21:13:08.089Z,28.89
2019-02-23T21:15:36.293Z,28.85
2019-02-23T21:18:04.558Z,28.89
2019-02-23T21:20:33.957Z,28.55
2019-02-23T21:23:03.022Z,28.74
2019-02-23T21:25:31.463Z,28.48
2019-02-23T21:27:59.626Z,28.89
2019-02-23T21:30:27.719Z,28.98
2019-02-23T21:32:56.089Z,28.75
2019-02-23T21:35:24.051Z,28.65
2019-02-23T21:37:52.233Z,28.70
2019-02-23T21:40:21.338Z,28.53
2019-02-23T21:42:49.436Z,28.92
2019-02-23T21:45:17.789Z,29.34
2019-02-23T21:47:46.079Z,29.39
2019-02-23T21:50:14.103Z,28.81
2019-02-23T21:52:42.143Z,29.23
2019-02-23T21:55:10.312Z,28.16
2019-02-23T21:57:38.528Z,28.92
2019-02-23T22:00:06.763Z,28.52
2019-02-23T22:02:35.423Z,27.94
2019-02-23T22:05:11.682Z,27.66
2019-02-23T22:07:33.697Z,27.67
2019-02-23T22:10:01.659Z,27.70
2019-02-23T22:12:29.886Z,27.65
2019-02-23T22:14:57.939Z,28.39
2019-02-23T22:17:26.107Z,27.74
2019-02-23T22:19:54.163Z,27.88
2019-02-23T22:22:22.416Z,28.55
2019-02-23T22:24:50.502Z,27.54
2019-02-23T22:27:18.866Z,27.78
2019-02-23T22:29:46.934Z,27.82
2019-02-23T22:32:14.958Z,28.15
2019-02-23T22:34:43.837Z,28.81
2019-02-23T22:37:11.877Z,28.78
2019-02-23T22:39:39.992Z,28.43
2019-02-23T22:42:07.975Z,28.35
2019-02-23T22:44:36.074Z,28.66
2019-02-23T22:47:06.017Z,29.42
2019-02-23T22:49:34.374Z,29.43
2019-02-23T22:52:02.403Z,29.38
2019-02-23T22:54:30.574Z,29.28
2019-02-23T22:56:58.579Z,29.62
2019-02-23T22:59:26.855Z,29.94
2019-02-23T23:01:55.332Z,29.74
2019-02-23T23:04:23.525Z,30.03
2019-02-23T23:06:51.651Z,34.70
2019-02-23T23:09:19.860Z,29.90
2019-02-23T23:11:47.888Z,32.00
2019-02-23T23:14:15.876Z,30.03
2019-02-23T23:16:43.943Z,28.81
2019-02-23T23:19:13.537Z,28.33
2019-02-23T23:21:42.057Z,28.53
2019-02-23T23:24:10.092Z,28.45
2019-02-23T23:26:38.280Z,28.04
2019-02-23T23:29:06.480Z,27.57
2019-02-23T23:31:34.510Z,28.59
2019-02-23T23:34:02.514Z,27.03
2019-02-23T23:36:31.626Z,28.84
2019-02-23T23:39:00.041Z,26.87
2019-02-23T23:41:27.962Z,28.01
2019-02-23T23:43:57.023Z,26.92
2019-02-23T23:46:25.123Z,28.81
2019-02-23T23:48:53.433Z,27.89
2019-02-23T23:51:21.609Z,27.04
2019-02-23T23:53:50.755Z,27.63
2019-02-23T23:56:18.875Z,28.51
2019-02-23T23:58:46.850Z,27.76
